createdAt,value
2022-08-09T00:00:11.300Z,101030.25
2022-08-09T00:02:49.006Z,101034.81
2022-08-09T00:06:18.097Z,101034.59
2022-08-09T00:08:09.875Z,101030.09
2022-08-09T00:10:38.758Z,101029.19
2022-08-09T00:13:17.580Z,101022.38
2022-08-09T00:15:58.721Z,101025.22
2022-08-09T00:18:34.888Z,101027.69
2022-08-09T00:21:08.791Z,101018.16
2022-08-09T00:23:55.883Z,101028.69
2022-08-09T00:26:32.569Z,101026.22
2022-08-09T00:29:02.272Z,101024.31
2022-08-09T00:31:55.885Z,101015.44
2022-08-09T00:34:19.522Z,101021.03
2022-08-09T00:36:50.206Z,101009.38
2022-08-09T00:40:09.247Z,101014.78
2022-08-09T00:44:15.218Z,101013.16
2022-08-09T00:44:53.950Z,101015.84
2022-08-09T00:47:24.585Z,101011.56
2022-08-09T00:49:54.886Z,101022.28
2022-08-09T00:52:28.303Z,101028.91
2022-08-09T00:55:00.411Z,101031.41
2022-08-09T00:57:33.771Z,101031.84
2022-08-09T01:00:05.462Z,101022.28
2022-08-09T01:03:03.119Z,101024.00
2022-08-09T01:05:50.712Z,101018.38
2022-08-09T01:08:34.739Z,101032.06
2022-08-09T01:11:25.990Z,101029.59
2022-08-09T01:14:01.925Z,101030.63
2022-08-09T01:16:47.090Z,101027.09
2022-08-09T01:20:01.664Z,101019.50
2022-08-09T01:22:51.977Z,101019.44
2022-08-09T01:25:27.250Z,101026.94
2022-08-09T01:27:57.858Z,101030.69
2022-08-09T01:30:28.473Z,101031.97
2022-08-09T01:33:06.223Z,101030.31
2022-08-09T01:35:52.767Z,101027.81
2022-08-09T01:38:24.513Z,101024.53
2022-08-09T01:41:05.071Z,101026.41
2022-08-09T01:43:47.993Z,101020.59
2022-08-09T01:46:26.951Z,101021.66
2022-08-09T01:49:10.195Z,101032.91
2022-08-09T01:51:42.744Z,101035.44
2022-08-09T01:54:10.336Z,101018.91
2022-08-09T01:56:42.887Z,101028.44
2022-08-09T01:59:18.901Z,101044.88
2022-08-09T02:02:00.163Z,101039.88
2022-08-09T02:04:32.113Z,101045.72
2022-08-09T02:07:15.451Z,101036.41
2022-08-09T02:09:59.811Z,101031.66
2022-08-09T02:12:32.796Z,101014.91
2022-08-09T02:15:02.941Z,101025.69
2022-08-09T02:18:01.704Z,101024.09
2022-08-09T02:20:26.305Z,101022.88
2022-08-09T02:23:10.120Z,101024.16
2022-08-09T02:25:42.626Z,101016.28
2022-08-09T02:28:19.353Z,101024.53
2022-08-09T02:31:03.733Z,101016.28
2022-08-09T02:34:06.429Z,101020.41
2022-08-09T02:36:31.803Z,101038.25
2022-08-09T02:39:03.188Z,101027.72
2022-08-09T02:41:45.840Z,101036.81
2022-08-09T02:44:29.260Z,101033.13
2022-08-09T02:46:59.964Z,101041.38
2022-08-09T02:49:40.914Z,101039.94
2022-08-09T02:52:13.107Z,101026.50
2022-08-09T02:54:53.907Z,101048.25
2022-08-09T02:57:25.002Z,101043.72
2022-08-09T03:00:20.567Z,101044.75
2022-08-09T03:02:58.039Z,101047.81
2022-08-09T03:05:26.602Z,101044.09
2022-08-09T03:07:55.805Z,101037.47
2022-08-09T03:10:24.489Z,101043.66
2022-08-09T03:12:53.170Z,101038.84
2022-08-09T03:15:22.896Z,101045.09
2022-08-09T03:17:53.865Z,101044.03
2022-08-09T03:20:29.452Z,101049.22
2022-08-09T03:23:00.404Z,101048.78
2022-08-09T03:26:03.074Z,101043.94
2022-08-09T03:28:31.246Z,101050.56
2022-08-09T03:31:10.052Z,101040.16
2022-08-09T03:33:54.275Z,101055.25
2022-08-09T03:36:27.619Z,101042.50
2022-08-09T03:38:56.440Z,101033.56
2022-08-09T03:41:30.210Z,101041.41
2022-08-09T03:44:10.281Z,101041.63
2022-08-09T03:46:39.433Z,101041.84
2022-08-09T03:49:08.989Z,101042.44
2022-08-09T03:51:56.666Z,101047.25
2022-08-09T03:54:29.191Z,101066.44
2022-08-09T03:57:04.021Z,101065.50
2022-08-09T03:59:53.802Z,101056.94
2022-08-09T04:02:26.940Z,101063.22
2022-08-09T04:05:00.710Z,101061.50
2022-08-09T04:07:47.045Z,101057.31
2022-08-09T04:10:20.230Z,101064.31
2022-08-09T04:12:52.562Z,101048.28
2022-08-09T04:15:40.437Z,101050.06
2022-08-09T04:18:18.105Z,101055.81
2022-08-09T04:20:47.866Z,101048.28
2022-08-09T04:23:17.177Z,101048.88
2022-08-09T04:25:51.973Z,101044.03
2022-08-09T04:28:33.734Z,101040.50
2022-08-09T04:31:05.698Z,101045.75
2022-08-09T04:33:52.182Z,101049.50
2022-08-09T04:36:21.922Z,101042.38
2022-08-09T04:38:50.659Z,101046.59
2022-08-09T04:41:17.299Z,101036.75
2022-08-09T04:43:53.797Z,101035.44
2022-08-09T04:46:57.023Z,101044.47
2022-08-09T04:49:22.235Z,101026.09
2022-08-09T04:52:07.403Z,101054.31
2022-08-09T04:54:36.151Z,101042.31
2022-08-09T04:57:03.971Z,101033.81
2022-08-09T04:59:31.478Z,101042.91
2022-08-09T05:01:58.638Z,101055.97
2022-08-09T05:04:30.712Z,101049.06
2022-08-09T05:06:58.476Z,101051.78
2022-08-09T05:09:25.537Z,101045.22
2022-08-09T05:12:11.109Z,101044.75
2022-08-09T05:14:40.964Z,101038.50
2022-08-09T05:18:36.628Z,101052.62
2022-08-09T05:19:57.035Z,101047.81
2022-08-09T05:22:35.844Z,101048.19
2022-08-09T05:25:12.324Z,101049.59
2022-08-09T05:27:46.442Z,101048.56
2022-08-09T05:30:17.600Z,101049.12
2022-08-09T05:32:50.981Z,101055.16
2022-08-09T05:35:22.127Z,101055.53
2022-08-09T05:37:50.497Z,101064.63
2022-08-09T05:40:18.297Z,101066.84
2022-08-09T05:42:45.967Z,101069.09
2022-08-09T05:45:14.572Z,101063.00
2022-08-09T05:47:52.515Z,101067.37
2022-08-09T05:50:43.924Z,101062.31
2022-08-09T05:53:21.652Z,101058.53
2022-08-09T05:55:58.797Z,101070.84
2022-08-09T05:58:25.544Z,101061.94
2022-08-09T06:00:53.779Z,101056.75
2022-08-09T06:03:20.783Z,101066.75
2022-08-09T06:05:54.834Z,101067.13
2022-08-09T06:08:25.206Z,101070.69
2022-08-09T06:10:53.950Z,101055.00
2022-08-09T06:13:21.612Z,101070.94
2022-08-09T06:15:51.569Z,101056.75
2022-08-09T06:18:25.187Z,101064.66
2022-08-09T06:20:57.282Z,101072.09
2022-08-09T06:23:58.483Z,101083.16
2022-08-09T06:26:21.095Z,101076.22
2022-08-09T06:28:59.985Z,101066.22
2022-08-09T06:31:40.094Z,101073.16
2022-08-09T06:34:19.266Z,101068.69
2022-08-09T06:36:46.233Z,101066.41
2022-08-09T06:39:13.627Z,101054.53
2022-08-09T06:42:08.773Z,101056.06
2022-08-09T06:44:30.672Z,101069.03
2022-08-09T06:46:57.413Z,101080.59
2022-08-09T06:49:45.123Z,101075.16
2022-08-09T06:52:12.106Z,101077.16
2022-08-09T06:54:42.380Z,101065.00
2022-08-09T06:57:12.019Z,101067.37
2022-08-09T07:00:52.251Z,101076.81
2022-08-09T07:02:29.211Z,101082.81
2022-08-09T07:04:58.245Z,101082.34
2022-08-09T07:07:58.551Z,101080.94
2022-08-09T07:10:29.711Z,101082.09
2022-08-09T07:12:59.758Z,101082.47
2022-08-09T07:15:53.723Z,101085.28
2022-08-09T07:18:15.060Z,101095.66
2022-08-09T07:20:43.450Z,101098.34
2022-08-09T07:23:18.825Z,101091.63
2022-08-09T07:25:52.127Z,101102.59
2022-08-09T07:28:26.151Z,101098.66
2022-08-09T07:30:55.730Z,101071.91
2022-08-09T07:33:23.230Z,101091.19
2022-08-09T07:35:53.937Z,101082.44
2022-08-09T07:38:23.331Z,101084.19
2022-08-09T07:41:00.885Z,101092.97
2022-08-09T07:43:41.232Z,101087.97
2022-08-09T07:46:19.430Z,101092.66
2022-08-09T07:48:52.964Z,101097.28
2022-08-09T07:52:03.255Z,101088.03
2022-08-09T07:54:14.039Z,101094.22
2022-08-09T07:56:44.991Z,101090.69
2022-08-09T07:59:33.776Z,101096.94
2022-08-09T08:02:09.110Z,101098.09
2022-08-09T08:04:37.230Z,101101.53
2022-08-09T08:07:09.274Z,101095.06
2022-08-09T08:09:46.686Z,101101.22
2022-08-09T08:12:27.424Z,101095.78
2022-08-09T08:14:56.934Z,101100.53
2022-08-09T08:17:24.893Z,101099.47
2022-08-09T08:20:13.102Z,101108.53
2022-08-09T08:22:40.905Z,101115.94
2022-08-09T08:25:13.618Z,101110.19
2022-08-09T08:27:43.142Z,101107.06
2022-08-09T08:30:13.693Z,101110.69
2022-08-09T08:32:53.621Z,101105.69
2022-08-09T08:35:22.344Z,101101.31
2022-08-09T08:38:02.248Z,101113.34
2022-08-09T08:40:33.551Z,101099.25
2022-08-09T08:43:03.257Z,101109.16
2022-08-09T08:45:51.364Z,101106.31
2022-08-09T08:48:19.839Z,101113.41
2022-08-09T08:50:49.389Z,101104.59
2022-08-09T08:53:21.567Z,101106.97
2022-08-09T08:55:49.012Z,101090.84
2022-08-09T08:58:24.004Z,101093.88
2022-08-09T09:00:57.065Z,101093.97
2022-08-09T09:03:33.207Z,101096.12
2022-08-09T09:06:07.275Z,101096.69
2022-08-09T09:08:41.002Z,101094.22
2022-08-09T09:11:17.306Z,101096.78
2022-08-09T09:13:56.490Z,101100.44
2022-08-09T09:16:33.640Z,101087.41
2022-08-09T09:22:04.146Z,101069.31
2022-08-09T09:24:38.853Z,101076.88
2022-08-09T09:27:09.352Z,101079.94
2022-08-09T09:32:36.471Z,101065.84
2022-08-09T09:35:12.984Z,101071.28
2022-08-09T09:37:45.605Z,101095.72
2022-08-09T09:40:14.069Z,101080.97
2022-08-09T09:42:55.940Z,101080.16
2022-08-09T09:45:25.738Z,101082.47
2022-08-09T09:47:58.893Z,101076.88
2022-08-09T09:50:49.817Z,101074.72
2022-08-09T09:53:57.190Z,101086.00
2022-08-09T09:56:19.988Z,101080.31
2022-08-09T09:58:58.720Z,101080.00
2022-08-09T10:01:31.536Z,101077.84
2022-08-09T10:04:15.890Z,101091.69
2022-08-09T10:06:51.922Z,101092.03
2022-08-09T10:09:23.856Z,101096.97
2022-08-09T10:12:12.406Z,101085.44
2022-08-09T10:14:48.607Z,101084.31
2022-08-09T10:17:51.253Z,101085.28
2022-08-09T10:20:31.792Z,101084.94
2022-08-09T10:23:20.868Z,101084.13
2022-08-09T10:26:04.901Z,101090.72
2022-08-09T10:28:37.640Z,101086.59
2022-08-09T10:34:11.160Z,101082.31
2022-08-09T10:36:42.800Z,101071.78
2022-08-09T10:39:15.473Z,101079.50
2022-08-09T10:41:47.749Z,101085.19
2022-08-09T10:44:18.897Z,101075.38
2022-08-09T10:48:12.703Z,101055.78
2022-08-09T10:50:14.746Z,101062.72
2022-08-09T10:53:05.094Z,101064.69
2022-08-09T10:55:58.438Z,101053.22
2022-08-09T10:58:35.066Z,101058.25
2022-08-09T11:03:06.781Z,101049.00
2022-08-09T11:04:27.939Z,101056.09
2022-08-09T11:06:57.735Z,101063.50
2022-08-09T11:09:47.508Z,101047.53
2022-08-09T11:12:29.858Z,101048.53
2022-08-09T11:15:23.897Z,101041.59
2022-08-09T11:18:03.039Z,101042.09
2022-08-09T11:20:47.524Z,101041.53
2022-08-09T11:23:16.798Z,101044.00
2022-08-09T11:25:51.121Z,101044.25
2022-08-09T11:28:35.154Z,101040.44
2022-08-09T11:31:43.594Z,101045.41
2022-08-09T11:34:24.958Z,101056.91
2022-08-09T11:36:52.970Z,101047.03
2022-08-09T11:39:19.871Z,101048.34
2022-08-09T11:41:46.770Z,101051.91
2022-08-09T11:44:16.028Z,101047.63
2022-08-09T11:46:57.869Z,101044.91
2022-08-09T11:50:56.529Z,101045.41
2022-08-09T11:53:59.856Z,101053.56
2022-08-09T11:55:53.766Z,101048.03
2022-08-09T11:58:33.718Z,101050.19
2022-08-09T12:01:37.610Z,101040.44
2022-08-09T12:04:07.509Z,101041.28
2022-08-09T12:06:55.505Z,101037.81
2022-08-09T12:09:33.717Z,101044.25
2022-08-09T12:12:12.997Z,101042.25
2022-08-09T12:15:04.213Z,101040.53
2022-08-09T12:17:43.055Z,101037.25
2022-08-09T12:20:21.432Z,101039.88
2022-08-09T12:22:55.888Z,101044.00
2022-08-09T12:25:31.847Z,101045.31
2022-08-09T12:29:10.433Z,101035.50
2022-08-09T12:31:00.214Z,101040.19
2022-08-09T12:33:50.770Z,101036.84
2022-08-09T12:36:27.396Z,101041.13
2022-08-09T12:38:58.934Z,101029.69
2022-08-09T12:41:38.309Z,101032.91
2022-08-09T12:44:08.045Z,101040.22
2022-08-09T12:46:40.749Z,101032.91
2022-08-09T12:49:08.830Z,101026.63
2022-08-09T12:51:52.564Z,101026.97
2022-08-09T12:54:24.384Z,101013.28
2022-08-09T12:56:54.668Z,101017.56
2022-08-09T12:59:23.453Z,101029.00
2022-08-09T13:01:59.275Z,101027.84
2022-08-09T13:04:38.195Z,101034.69
2022-08-09T13:07:14.455Z,101033.72
2022-08-09T13:09:52.572Z,101043.66
2022-08-09T13:12:23.582Z,101030.75
2022-08-09T13:14:54.069Z,101033.13
2022-08-09T13:18:02.655Z,101027.94
2022-08-09T13:20:18.844Z,101032.69
2022-08-09T13:23:01.510Z,101030.47
2022-08-09T13:25:55.003Z,101034.09
2022-08-09T13:28:24.596Z,101034.44
2022-08-09T13:32:13.622Z,101036.81
2022-08-09T13:33:57.929Z,101030.91
2022-08-09T13:36:41.414Z,101018.44
2022-08-09T13:41:20.893Z,101033.19
2022-08-09T13:42:12.164Z,101034.28
2022-08-09T13:44:42.165Z,101027.09
2022-08-09T13:47:33.811Z,101044.00
2022-08-09T13:50:12.546Z,101041.28
2022-08-09T13:52:41.747Z,101038.31
2022-08-09T13:55:13.787Z,101036.66
2022-08-09T13:57:44.288Z,101032.03
2022-08-09T14:00:16.453Z,101033.94
2022-08-09T14:03:03.155Z,101026.78
2022-08-09T14:06:00.669Z,101011.91
2022-08-09T14:08:27.116Z,101032.00
2022-08-09T14:10:55.980Z,101018.25
2022-08-09T14:14:15.539Z,101026.38
2022-08-09T14:16:15.889Z,101025.56
2022-08-09T14:18:45.891Z,101019.31
2022-08-09T14:21:18.341Z,101024.25
2022-08-09T14:23:54.743Z,101021.78
2022-08-09T14:26:32.046Z,101023.69
2022-08-09T14:29:02.199Z,101024.25
2022-08-09T14:31:49.596Z,101030.28
2022-08-09T14:34:31.443Z,101023.19
2022-08-09T14:37:06.907Z,101011.75
2022-08-09T14:39:45.445Z,101018.56
2022-08-09T14:42:30.204Z,101011.75
2022-08-09T14:46:39.731Z,101019.91
2022-08-09T14:48:00.207Z,101011.88
2022-08-09T14:50:31.268Z,101012.97
2022-08-09T14:53:00.063Z,101013.47
2022-08-09T14:55:29.269Z,101004.97
2022-08-09T14:58:04.558Z,100996.50
2022-08-09T15:00:34.303Z,101005.72
2022-08-09T15:03:08.104Z,101007.03
2022-08-09T15:05:37.699Z,101008.12
2022-08-09T15:08:05.784Z,101004.00
2022-08-09T15:10:34.881Z,101011.34
2022-08-09T15:13:04.215Z,101001.78
2022-08-09T15:15:34.127Z,101001.78
2022-08-09T15:18:07.497Z,100997.66
2022-08-09T15:21:57.307Z,101002.03
2022-08-09T15:24:02.326Z,100994.94
2022-08-09T15:26:18.704Z,100990.59
2022-08-09T15:28:55.584Z,101002.50
2022-08-09T15:31:28.466Z,101000.28
2022-08-09T15:34:33.408Z,100995.09
2022-08-09T15:36:55.167Z,100986.13
2022-08-09T15:39:25.887Z,100983.63
2022-08-09T15:42:02.617Z,100989.28
2022-08-09T15:44:32.673Z,100983.84
2022-08-09T15:47:00.809Z,100972.44
2022-08-09T15:49:28.414Z,100974.34
2022-08-09T15:52:04.603Z,100960.31
2022-08-09T15:54:44.590Z,100968.53
2022-08-09T15:57:19.122Z,100974.47
2022-08-09T16:00:04.895Z,100983.97
2022-08-09T16:02:31.480Z,100970.03
2022-08-09T16:04:58.582Z,100960.47
2022-08-09T16:07:29.296Z,100960.38
2022-08-09T16:10:11.151Z,100969.09
2022-08-09T16:12:41.476Z,100973.72
2022-08-09T16:16:10.789Z,100953.47
2022-08-09T16:18:05.079Z,100944.75
2022-08-09T16:20:32.117Z,100961.12
2022-08-09T16:23:01.106Z,100940.06
2022-08-09T16:25:36.982Z,100951.00
2022-08-09T16:28:12.132Z,100954.44
2022-08-09T16:30:40.943Z,100956.59
2022-08-09T16:33:12.213Z,100941.25
2022-08-09T16:35:55.719Z,100957.66
2022-08-09T16:38:27.423Z,100949.66
2022-08-09T16:40:54.264Z,100959.13
2022-08-09T16:43:23.031Z,100947.00
2022-08-09T16:45:53.838Z,100942.88
2022-08-09T16:48:38.948Z,100955.66
2022-08-09T16:51:14.153Z,100953.88
2022-08-09T16:54:16.498Z,100961.31
2022-08-09T16:56:34.569Z,100953.28
2022-08-09T16:59:10.193Z,100961.91
2022-08-09T17:01:38.866Z,100964.16
2022-08-09T17:04:06.724Z,100959.69
2022-08-09T17:07:09.238Z,100970.06
2022-08-09T17:09:45.830Z,100972.78
2022-08-09T17:12:08.537Z,100961.22
2022-08-09T17:14:35.622Z,100981.41
2022-08-09T17:17:23.259Z,100968.56
2022-08-09T17:20:29.740Z,100972.44
2022-08-09T17:22:52.139Z,100958.97
2022-08-09T17:25:22.336Z,100973.50
2022-08-09T17:27:54.469Z,100964.88
2022-08-09T17:30:25.475Z,100968.78
2022-08-09T17:32:52.919Z,100987.31
2022-08-09T17:35:19.689Z,100974.22
2022-08-09T17:38:12.745Z,100985.53
2022-08-09T17:40:35.240Z,100982.19
2022-08-09T17:43:32.111Z,100987.06
2022-08-09T17:46:02.942Z,100982.00
2022-08-09T17:48:38.564Z,100994.00
2022-08-09T17:51:10.321Z,101001.56
2022-08-09T17:53:51.612Z,100999.25
2022-08-09T17:56:35.512Z,101010.19
2022-08-09T17:59:11.471Z,101007.47
2022-08-09T18:02:03.295Z,101013.94
2022-08-09T18:04:27.200Z,101011.47
2022-08-09T18:06:55.632Z,101012.19
2022-08-09T18:09:41.145Z,101011.62
2022-08-09T18:12:19.586Z,101023.28
2022-08-09T18:14:55.073Z,101006.53
2022-08-09T18:18:02.705Z,101018.34
2022-08-09T18:20:53.884Z,101019.38
2022-08-09T18:23:05.273Z,101019.38
2022-08-09T18:25:50.181Z,101008.91
2022-08-09T18:30:34.144Z,101011.16
2022-08-09T18:31:05.548Z,100998.88
2022-08-09T18:33:34.523Z,100997.50
2022-08-09T18:36:01.179Z,101002.69
2022-08-09T18:38:28.325Z,101008.34
2022-08-09T18:40:55.820Z,100990.56
2022-08-09T18:43:24.435Z,100998.69
2022-08-09T18:46:46.884Z,100989.47
2022-08-09T18:48:38.579Z,100997.59
2022-08-09T18:51:09.258Z,101002.44
2022-08-09T18:53:55.898Z,101001.84
2022-08-09T18:56:27.029Z,101003.16
2022-08-09T18:58:56.242Z,101007.72
2022-08-09T19:01:24.177Z,101009.87
2022-08-09T19:04:01.654Z,101019.66
2022-08-09T19:06:36.297Z,101020.72
2022-08-09T19:09:06.384Z,101019.03
2022-08-09T19:11:37.573Z,101022.38
2022-08-09T19:14:06.358Z,101002.34
2022-08-09T19:16:36.416Z,101008.69
2022-08-09T19:19:25.051Z,101008.69
2022-08-09T19:22:06.283Z,101002.56
2022-08-09T19:25:11.648Z,101014.56
2022-08-09T19:27:22.487Z,101004.19
2022-08-09T19:30:25.205Z,100986.66
2022-08-09T19:32:36.954Z,100992.22
2022-08-09T19:35:04.807Z,100992.31
2022-08-09T19:37:40.938Z,101001.84
2022-08-09T19:40:19.970Z,100989.84
2022-08-09T19:42:47.440Z,100983.00
2022-08-09T19:45:16.618Z,100988.16
2022-08-09T19:47:44.715Z,100980.03
2022-08-09T19:50:51.006Z,100987.69
2022-08-09T19:53:04.327Z,100981.94
2022-08-09T19:56:02.470Z,100986.41
2022-08-09T19:58:29.838Z,100974.62
2022-08-09T20:00:58.310Z,100984.75
2022-08-09T20:04:18.677Z,100990.78
2022-08-09T20:06:23.018Z,100984.75
2022-08-09T20:08:56.871Z,100982.91
2022-08-09T20:11:26.749Z,100969.69
2022-08-09T20:13:55.107Z,100979.81
2022-08-09T20:16:35.605Z,100974.06
2022-08-09T20:19:48.631Z,100973.94
2022-08-09T20:21:57.269Z,100971.66
2022-08-09T20:24:29.738Z,100975.91
2022-08-09T20:27:02.651Z,100972.69
2022-08-09T20:29:37.226Z,100970.13
2022-08-09T20:32:29.378Z,100976.13
2022-08-09T20:34:57.023Z,100975.16
2022-08-09T20:37:23.980Z,100965.38
2022-08-09T20:40:15.622Z,100971.25
2022-08-09T20:42:38.205Z,100978.91
2022-08-09T20:45:59.800Z,100974.78
2022-08-09T20:47:55.101Z,100973.97
2022-08-09T20:50:48.145Z,100971.50
2022-08-09T20:53:18.513Z,100980.31
2022-08-09T20:56:02.557Z,100970.28
2022-08-09T20:58:32.673Z,100971.56
2022-08-09T21:01:32.843Z,100966.63
2022-08-09T21:05:48.262Z,100967.09
2022-08-09T21:06:36.414Z,100974.62
2022-08-09T21:09:03.815Z,100966.97
2022-08-09T21:14:17.909Z,100956.38
2022-08-09T21:16:45.692Z,100951.41
2022-08-09T21:20:17.019Z,100941.75
2022-08-09T21:22:00.245Z,100956.44
2022-08-09T21:24:32.655Z,100945.97
2022-08-09T21:27:10.211Z,100940.78
2022-08-09T21:29:49.318Z,100944.78
2022-08-09T21:32:18.759Z,100960.94
2022-08-09T21:34:48.245Z,100960.31
2022-08-09T21:37:18.212Z,100963.25
2022-08-09T21:39:49.699Z,100955.34
2022-08-09T21:42:17.535Z,100959.09
2022-08-09T21:44:55.909Z,100957.72
2022-08-09T21:47:23.002Z,100957.94
2022-08-09T21:49:50.883Z,100954.63
2022-08-09T21:52:20.338Z,100967.34
2022-08-09T21:54:59.591Z,100957.56
2022-08-09T21:57:39.311Z,100953.88
2022-08-09T22:00:26.570Z,100966.50
2022-08-09T22:03:04.712Z,100954.63
2022-08-09T22:05:35.655Z,100968.38
2022-08-09T22:08:06.718Z,100966.75
2022-08-09T22:11:49.497Z,100965.91
2022-08-09T22:13:31.599Z,100960.72
2022-08-09T22:16:07.225Z,100961.78
2022-08-09T22:18:37.094Z,100950.19
2022-08-09T22:21:09.370Z,100953.13
2022-08-09T22:23:59.527Z,100958.44
2022-08-09T22:26:35.307Z,100958.91
2022-08-09T22:29:09.861Z,100961.59
2022-08-09T22:31:44.170Z,100959.13
2022-08-09T22:34:14.783Z,100954.75
2022-08-09T22:36:45.961Z,100951.47
2022-08-09T22:39:20.830Z,100946.28
2022-08-09T22:42:02.641Z,100949.00
2022-08-09T22:44:32.876Z,100943.22
2022-08-09T22:48:13.620Z,100937.22
2022-08-09T22:49:48.145Z,100920.50
2022-08-09T22:52:19.792Z,100927.06
2022-08-09T22:54:48.186Z,100910.12
2022-08-09T22:57:15.455Z,100931.91
2022-08-09T22:59:57.458Z,100926.94
2022-08-09T23:02:27.397Z,100918.91
2022-08-09T23:04:54.826Z,100930.47
2022-08-09T23:08:27.271Z,100928.00
2022-08-09T23:10:32.861Z,100922.34
2022-08-09T23:12:59.932Z,100930.25
2022-08-09T23:15:27.701Z,100927.53
2022-08-09T23:17:56.120Z,100924.00
2022-08-09T23:20:23.882Z,100925.91
2022-08-09T23:22:50.541Z,100921.75
2022-08-09T23:25:17.720Z,100928.59
2022-08-09T23:27:57.475Z,100921.53
2022-08-09T23:30:31.532Z,100920.56
2022-08-09T23:32:58.249Z,100921.53
2022-08-09T23:35:24.997Z,100920.50
2022-08-09T23:37:52.052Z,100897.28
2022-08-09T23:40:18.772Z,100920.50
2022-08-09T23:42:45.463Z,100921.53
2022-08-09T23:45:36.611Z,100921.75
2022-08-09T23:47:59.302Z,100921.16
2022-08-09T23:50:26.761Z,100934.25
2022-08-09T23:52:53.946Z,100923.44
2022-08-09T23:55:20.868Z,100919.66
2022-08-09T23:58:10.535Z,100896.91
